sensor_id;sensor_type;location;lat;lon;timestamp;temperature;humidity
16392;DHT22;8305;-33.882;151.134;2023-04-01T00:01:48;18.50;99.90
16392;DHT22;8305;-33.882;151.134;2023-04-01T00:04:19;18.50;99.90
16392;DHT22;8305;-33.882;151.134;2023-04-01T00:06:51;18.50;99.90
16392;DHT22;8305;-33.882;151.134;2023-04-01T00:09:22;18.40;99.90
16392;DHT22;8305;-33.882;151.134;2023-04-01T00:11:55;18.40;99.90
16392;DHT22;8305;-33.882;151.134;2023-04-01T00:14:26;18.30;99.90
16392;DHT22;8305;-33.882;151.134;2023-04-01T00:16:57;18.20;99.90
16392;DHT22;8305;-33.882;151.134;2023-04-01T00:19:29;18.10;99.90
16392;DHT22;8305;-33.882;151.134;2023-04-01T00:22:00;18.00;99.90
16392;DHT22;8305;-33.882;151.134;2023-04-01T00:24:32;18.00;99.90
16392;DHT22;8305;-33.882;151.134;2023-04-01T00:27:05;17.90;99.90
16392;DHT22;8305;-33.882;151.134;2023-04-01T00:29:36;17.80;99.90
16392;DHT22;8305;-33.882;151.134;2023-04-01T00:32:07;17.80;99.90
16392;DHT22;8305;-33.882;151.134;2023-04-01T00:34:39;17.80;99.90
16392;DHT22;8305;-33.882;151.134;2023-04-01T00:37:10;17.90;99.90
16392;DHT22;8305;-33.882;151.134;2023-04-01T00:39:41;17.90;99.90
16392;DHT22;8305;-33.882;151.134;2023-04-01T00:42:14;17.90;99.90
16392;DHT22;8305;-33.882;151.134;2023-04-01T00:44:48;17.90;99.90
16392;DHT22;8305;-33.882;151.134;2023-04-01T00:47:21;17.90;99.90
16392;DHT22;8305;-33.882;151.134;2023-04-01T00:49:53;18.00;99.90
16392;DHT22;8305;-33.882;151.134;2023-04-01T00:52:26;17.90;99.90
16392;DHT22;8305;-33.882;151.134;2023-04-01T00:54:59;18.00;99.90
16392;DHT22;8305;-33.882;151.134;2023-04-01T00:57:36;18.00;99.90
16392;DHT22;8305;-33.882;151.134;2023-04-01T01:00:10;18.00;99.90
16392;DHT22;8305;-33.882;151.134;2023-04-01T01:02:44;18.00;99.90
16392;DHT22;8305;-33.882;151.134;2023-04-01T01:05:17;18.00;99.90
16392;DHT22;8305;-33.882;151.134;2023-04-01T01:07:54;18.00;99.90
16392;DHT22;8305;-33.882;151.134;2023-04-01T01:10:33;18.00;99.90
16392;DHT22;8305;-33.882;151.134;2023-04-01T01:13:11;18.00;99.90
16392;DHT22;8305;-33.882;151.134;2023-04-01T01:15:47;18.00;99.90
16392;DHT22;8305;-33.882;151.134;2023-04-01T01:18:33;17.90;99.90
16392;DHT22;8305;-33.882;151.134;2023-04-01T01:24:40;17.90;99.90
16392;DHT22;8305;-33.882;151.134;2023-04-01T01:27:13;17.90;99.90
16392;DHT22;8305;-33.882;151.134;2023-04-01T01:30:13;17.80;99.90
16392;DHT22;8305;-33.882;151.134;2023-04-01T01:35:47;18.00;99.90
16392;DHT22;8305;-33.882;151.134;2023-04-01T01:38:21;18.10;99.90
16392;DHT22;8305;-33.882;151.134;2023-04-01T01:40:53;18.20;99.90
16392;DHT22;8305;-33.882;151.134;2023-04-01T01:43:28;18.20;99.90
16392;DHT22;8305;-33.882;151.134;2023-04-01T01:46:02;18.20;99.90
16392;DHT22;8305;-33.882;151.134;2023-04-01T01:48:36;18.10;99.90
16392;DHT22;8305;-33.882;151.134;2023-04-01T01:51:09;18.10;99.90
16392;DHT22;8305;-33.882;151.134;2023-04-01T01:53:41;18.10;99.90
16392;DHT22;8305;-33.882;151.134;2023-04-01T01:56:12;18.10;99.90
16392;DHT22;8305;-33.882;151.134;2023-04-01T01:58:44;18.10;99.90
16392;DHT22;8305;-33.882;151.134;2023-04-01T02:01:19;18.10;99.90
16392;DHT22;8305;-33.882;151.134;2023-04-01T02:03:52;18.10;99.90
16392;DHT22;8305;-33.882;151.134;2023-04-01T02:06:28;18.20;99.90
16392;DHT22;8305;-33.882;151.134;2023-04-01T02:09:02;18.20;99.90
16392;DHT22;8305;-33.882;151.134;2023-04-01T02:11:38;18.20;99.90
16392;DHT22;8305;-33.882;151.134;2023-04-01T02:14:13;18.20;99.90
16392;DHT22;8305;-33.882;151.134;2023-04-01T02:16:49;18.10;99.90
16392;DHT22;8305;-33.882;151.134;2023-04-01T02:19:23;18.10;99.90
16392;DHT22;8305;-33.882;151.134;2023-04-01T02:22:01;18.10;99.90
16392;DHT22;8305;-33.882;151.134;2023-04-01T02:24:34;18.20;99.90
16392;DHT22;8305;-33.882;151.134;2023-04-01T02:27:06;18.30;99.90
16392;DHT22;8305;-33.882;151.134;2023-04-01T02:29:37;18.30;99.90
16392;DHT22;8305;-33.882;151.134;2023-04-01T02:32:10;18.00;99.90
16392;DHT22;8305;-33.882;151.134;2023-04-01T02:34:42;17.90;99.90
16392;DHT22;8305;-33.882;151.134;2023-04-01T02:37:15;17.90;99.90
16392;DHT22;8305;-33.882;151.134;2023-04-01T02:39:46;17.80;99.90
16392;DHT22;8305;-33.882;151.134;2023-04-01T02:42:17;17.80;99.90
16392;DHT22;8305;-33.882;151.134;2023-04-01T02:44:49;17.90;99.90
16392;DHT22;8305;-33.882;151.134;2023-04-01T02:47:20;17.80;99.90
16392;DHT22;8305;-33.882;151.134;2023-04-01T02:49:51;17.70;99.90
16392;DHT22;8305;-33.882;151.134;2023-04-01T02:52:28;17.80;99.90
16392;DHT22;8305;-33.882;151.134;2023-04-01T02:54:59;17.70;99.90
16392;DHT22;8305;-33.882;151.134;2023-04-01T02:57:30;17.70;99.90
16392;DHT22;8305;-33.882;151.134;2023-04-01T03:00:02;17.70;99.90
16392;DHT22;8305;-33.882;151.134;2023-04-01T03:02:33;17.70;99.90
16392;DHT22;8305;-33.882;151.134;2023-04-01T03:05:04;17.80;99.90
16392;DHT22;8305;-33.882;151.134;2023-04-01T03:07:38;17.70;99.90
16392;DHT22;8305;-33.882;151.134;2023-04-01T03:10:09;17.60;99.90
16392;DHT22;8305;-33.882;151.134;2023-04-01T03:12:41;17.70;99.90
16392;DHT22;8305;-33.882;151.134;2023-04-01T03:15:12;17.70;99.90
16392;DHT22;8305;-33.882;151.134;2023-04-01T03:17:44;17.80;99.90
16392;DHT22;8305;-33.882;151.134;2023-04-01T03:20:16;17.80;99.90
16392;DHT22;8305;-33.882;151.134;2023-04-01T03:22:50;17.80;99.90
16392;DHT22;8305;-33.882;151.134;2023-04-01T03:25:21;17.90;99.90
16392;DHT22;8305;-33.882;151.134;2023-04-01T03:27:52;17.90;99.90
16392;DHT22;8305;-33.882;151.134;2023-04-01T03:30:23;17.90;99.90
16392;DHT22;8305;-33.882;151.134;2023-04-01T03:32:54;17.90;99.90
16392;DHT22;8305;-33.882;151.134;2023-04-01T03:35:25;17.90;99.90
16392;DHT22;8305;-33.882;151.134;2023-04-01T03:37:58;17.80;99.90
16392;DHT22;8305;-33.882;151.134;2023-04-01T03:40:29;17.80;99.90
16392;DHT22;8305;-33.882;151.134;2023-04-01T03:43:01;17.80;99.90
16392;DHT22;8305;-33.882;151.134;2023-04-01T03:45:36;17.70;99.90
16392;DHT22;8305;-33.882;151.134;2023-04-01T03:48:07;17.80;99.90
16392;DHT22;8305;-33.882;151.134;2023-04-01T03:50:38;17.80;99.90
16392;DHT22;8305;-33.882;151.134;2023-04-01T03:53:11;17.80;99.90
16392;DHT22;8305;-33.882;151.134;2023-04-01T03:55:43;17.90;99.90
16392;DHT22;8305;-33.882;151.134;2023-04-01T03:58:14;17.90;99.90
16392;DHT22;8305;-33.882;151.134;2023-04-01T04:00:45;18.00;99.90
16392;DHT22;8305;-33.882;151.134;2023-04-01T04:03:17;18.00;99.90
16392;DHT22;8305;-33.882;151.134;2023-04-01T04:05:48;18.00;99.90
16392;DHT22;8305;-33.882;151.134;2023-04-01T04:08:21;18.10;99.90
16392;DHT22;8305;-33.882;151.134;2023-04-01T04:10:56;18.10;99.90
16392;DHT22;8305;-33.882;151.134;2023-04-01T04:13:27;18.10;99.90
16392;DHT22;8305;-33.882;151.134;2023-04-01T04:15:59;18.20;99.90
16392;DHT22;8305;-33.882;151.134;2023-04-01T04:18:30;18.20;99.90
16392;DHT22;8305;-33.882;151.134;2023-04-01T04:21:01;18.20;99.90
16392;DHT22;8305;-33.882;151.134;2023-04-01T04:23:34;18.10;99.90
16392;DHT22;8305;-33.882;151.134;2023-04-01T04:26:07;18.10;99.90
16392;DHT22;8305;-33.882;151.134;2023-04-01T04:28:39;18.00;99.90
16392;DHT22;8305;-33.882;151.134;2023-04-01T04:31:10;17.80;99.90
16392;DHT22;8305;-33.882;151.134;2023-04-01T04:33:41;17.70;99.90
16392;DHT22;8305;-33.882;151.134;2023-04-01T04:36:12;17.50;99.90
16392;DHT22;8305;-33.882;151.134;2023-04-01T04:38:45;17.50;99.90
16392;DHT22;8305;-33.882;151.134;2023-04-01T04:41:17;17.50;99.90
16392;DHT22;8305;-33.882;151.134;2023-04-01T04:43:53;17.50;99.90
16392;DHT22;8305;-33.882;151.134;2023-04-01T04:46:25;17.60;99.90
16392;DHT22;8305;-33.882;151.134;2023-04-01T04:48:56;17.50;99.90
16392;DHT22;8305;-33.882;151.134;2023-04-01T04:51:27;17.50;99.90
16392;DHT22;8305;-33.882;151.134;2023-04-01T04:54:00;17.50;99.90
16392;DHT22;8305;-33.882;151.134;2023-04-01T04:56:31;17.60;99.90
16392;DHT22;8305;-33.882;151.134;2023-04-01T04:59:03;17.60;99.90
16392;DHT22;8305;-33.882;151.134;2023-04-01T05:01:35;17.50;99.90
16392;DHT22;8305;-33.882;151.134;2023-04-01T05:04:06;17.60;99.90
16392;DHT22;8305;-33.882;151.134;2023-04-01T05:06:37;17.50;99.90
16392;DHT22;8305;-33.882;151.134;2023-04-01T05:09:10;17.50;99.90
16392;DHT22;8305;-33.882;151.134;2023-04-01T05:11:41;17.60;99.90
16392;DHT22;8305;-33.882;151.134;2023-04-01T05:14:16;17.60;99.90
16392;DHT22;8305;-33.882;151.134;2023-04-01T05:16:47;17.60;99.90
16392;DHT22;8305;-33.882;151.134;2023-04-01T05:19:18;17.70;99.90
16392;DHT22;8305;-33.882;151.134;2023-04-01T05:21:49;17.80;99.90
16392;DHT22;8305;-33.882;151.134;2023-04-01T05:24:22;17.90;99.90
16392;DHT22;8305;-33.882;151.134;2023-04-01T05:26:53;17.90;99.90
16392;DHT22;8305;-33.882;151.134;2023-04-01T05:29:25;18.00;99.90
16392;DHT22;8305;-33.882;151.134;2023-04-01T05:31:56;18.10;99.90
16392;DHT22;8305;-33.882;151.134;2023-04-01T05:34:28;18.20;99.90
16392;DHT22;8305;-33.882;151.134;2023-04-01T05:36:59;18.20;99.90
16392;DHT22;8305;-33.882;151.134;2023-04-01T05:39:35;18.30;99.90
16392;DHT22;8305;-33.882;151.134;2023-04-01T05:42:07;18.40;99.90
16392;DHT22;8305;-33.882;151.134;2023-04-01T05:44:38;18.40;99.90
16392;DHT22;8305;-33.882;151.134;2023-04-01T05:47:09;18.50;99.90
16392;DHT22;8305;-33.882;151.134;2023-04-01T05:49:41;18.60;99.90
16392;DHT22;8305;-33.882;151.134;2023-04-01T05:52:12;18.60;99.90
16392;DHT22;8305;-33.882;151.134;2023-04-01T05:54:45;18.60;99.90
16392;DHT22;8305;-33.882;151.134;2023-04-01T05:57:16;18.70;99.90
16392;DHT22;8305;-33.882;151.134;2023-04-01T05:59:47;18.80;99.90
16392;DHT22;8305;-33.882;151.134;2023-04-01T06:02:19;18.80;99.90
16392;DHT22;8305;-33.882;151.134;2023-04-01T06:04:50;18.90;99.90
16392;DHT22;8305;-33.882;151.134;2023-04-01T06:07:25;18.90;99.90
16392;DHT22;8305;-33.882;151.134;2023-04-01T06:10:00;18.90;99.90
16392;DHT22;8305;-33.882;151.134;2023-04-01T06:12:40;18.90;99.90
16392;DHT22;8305;-33.882;151.134;2023-04-01T06:15:24;18.90;99.90
16392;DHT22;8305;-33.882;151.134;2023-04-01T06:18:11;18.90;99.90
16392;DHT22;8305;-33.882;151.134;2023-04-01T06:20:49;18.90;99.90
16392;DHT22;8305;-33.882;151.134;2023-04-01T06:23:34;18.90;99.90
16392;DHT22;8305;-33.882;151.134;2023-04-01T06:26:19;18.80;99.90
16392;DHT22;8305;-33.882;151.134;2023-04-01T06:32:12;18.90;99.90
16392;DHT22;8305;-33.882;151.134;2023-04-01T06:35:01;18.90;99.90
16392;DHT22;8305;-33.882;151.134;2023-04-01T06:37:54;18.90;99.90
16392;DHT22;8305;-33.882;151.134;2023-04-01T06:41:02;18.90;99.90
16392;DHT22;8305;-33.882;151.134;2023-04-01T06:43:45;18.90;99.90
16392;DHT22;8305;-33.882;151.134;2023-04-01T06:46:27;18.90;99.90
16392;DHT22;8305;-33.882;151.134;2023-04-01T06:49:16;19.10;99.90
16392;DHT22;8305;-33.882;151.134;2023-04-01T06:51:55;19.10;99.90
16392;DHT22;8305;-33.882;151.134;2023-04-01T06:54:33;19.10;99.90
16392;DHT22;8305;-33.882;151.134;2023-04-01T06:57:13;19.10;99.90
16392;DHT22;8305;-33.882;151.134;2023-04-01T06:59:50;19.10;99.90
16392;DHT22;8305;-33.882;151.134;2023-04-01T07:02:28;19.20;99.90
16392;DHT22;8305;-33.882;151.134;2023-04-01T07:05:05;19.20;99.90
16392;DHT22;8305;-33.882;151.134;2023-04-01T07:07:40;19.10;99.90
16392;DHT22;8305;-33.882;151.134;2023-04-01T07:10:15;19.10;99.90
16392;DHT22;8305;-33.882;151.134;2023-04-01T07:12:49;19.10;99.90
16392;DHT22;8305;-33.882;151.134;2023-04-01T07:15:27;19.00;99.90
16392;DHT22;8305;-33.882;151.134;2023-04-01T07:18:04;18.90;99.90
16392;DHT22;8305;-33.882;151.134;2023-04-01T07:20:37;18.90;99.90
16392;DHT22;8305;-33.882;151.134;2023-04-01T07:23:15;18.90;99.90
16392;DHT22;8305;-33.882;151.134;2023-04-01T07:25:51;18.80;99.90
16392;DHT22;8305;-33.882;151.134;2023-04-01T07:28:22;18.80;99.90
16392;DHT22;8305;-33.882;151.134;2023-04-01T07:31:07;18.80;99.90
16392;DHT22;8305;-33.882;151.134;2023-04-01T07:33:47;18.70;99.90
16392;DHT22;8305;-33.882;151.134;2023-04-01T07:36:24;18.70;99.90
16392;DHT22;8305;-33.882;151.134;2023-04-01T07:39:03;18.70;99.90
16392;DHT22;8305;-33.882;151.134;2023-04-01T07:41:48;18.60;99.90
16392;DHT22;8305;-33.882;151.134;2023-04-01T07:44:28;18.60;99.90
16392;DHT22;8305;-33.882;151.134;2023-04-01T07:47:17;18.60;99.90
16392;DHT22;8305;-33.882;151.134;2023-04-01T07:49:59;18.60;99.90
16392;DHT22;8305;-33.882;151.134;2023-04-01T07:52:36;18.60;99.90
16392;DHT22;8305;-33.882;151.134;2023-04-01T07:55:13;18.60;99.90
16392;DHT22;8305;-33.882;151.134;2023-04-01T07:57:52;18.60;99.90
16392;DHT22;8305;-33.882;151.134;2023-04-01T08:00:30;18.50;99.90
16392;DHT22;8305;-33.882;151.134;2023-04-01T08:03:25;18.50;99.90
16392;DHT22;8305;-33.882;151.134;2023-04-01T08:06:05;18.50;99.90
16392;DHT22;8305;-33.882;151.134;2023-04-01T08:08:50;18.50;99.90
16392;DHT22;8305;-33.882;151.134;2023-04-01T08:11:36;18.50;99.90
16392;DHT22;8305;-33.882;151.134;2023-04-01T08:14:18;18.50;99.90
16392;DHT22;8305;-33.882;151.134;2023-04-01T08:16:57;18.50;99.90
16392;DHT22;8305;-33.882;151.134;2023-04-01T08:19:51;18.50;99.90
16392;DHT22;8305;-33.882;151.134;2023-04-01T08:22:27;18.50;99.90
16392;DHT22;8305;-33.882;151.134;2023-04-01T08:25:02;18.50;99.90
16392;DHT22;8305;-33.882;151.134;2023-04-01T08:27:39;18.50;99.90
16392;DHT22;8305;-33.882;151.134;2023-04-01T08:30:19;18.50;99.90
16392;DHT22;8305;-33.882;151.134;2023-04-01T08:32:55;18.50;99.90
16392;DHT22;8305;-33.882;151.134;2023-04-01T08:35:31;18.50;99.90
16392;DHT22;8305;-33.882;151.134;2023-04-01T08:38:09;18.50;99.90
16392;DHT22;8305;-33.882;151.134;2023-04-01T08:40:59;18.40;99.90
16392;DHT22;8305;-33.882;151.134;2023-04-01T08:43:53;18.40;99.90
16392;DHT22;8305;-33.882;151.134;2023-04-01T08:46:54;18.40;99.90
16392;DHT22;8305;-33.882;151.134;2023-04-01T08:49:41;18.40;99.90
16392;DHT22;8305;-33.882;151.134;2023-04-01T08:52:24;18.40;99.90
16392;DHT22;8305;-33.882;151.134;2023-04-01T08:55:37;18.40;99.90
16392;DHT22;8305;-33.882;151.134;2023-04-01T08:58:42;18.30;99.90
16392;DHT22;8305;-33.882;151.134;2023-04-01T09:01:33;18.30;99.90
16392;DHT22;8305;-33.882;151.134;2023-04-01T09:04:25;18.30;99.90
16392;DHT22;8305;-33.882;151.134;2023-04-01T09:07:08;18.30;99.90
16392;DHT22;8305;-33.882;151.134;2023-04-01T09:09:57;18.30;99.90
16392;DHT22;8305;-33.882;151.134;2023-04-01T09:12:53;18.30;99.90
16392;DHT22;8305;-33.882;151.134;2023-04-01T09:15:55;18.40;99.90
16392;DHT22;8305;-33.882;151.134;2023-04-01T09:18:45;18.40;99.90
16392;DHT22;8305;-33.882;151.134;2023-04-01T09:21:39;18.40;99.90
16392;DHT22;8305;-33.882;151.134;2023-04-01T09:24:24;18.40;99.90
16392;DHT22;8305;-33.882;151.134;2023-04-01T09:27:08;18.40;99.90
16392;DHT22;8305;-33.882;151.134;2023-04-01T09:33:07;18.40;99.90
16392;DHT22;8305;-33.882;151.134;2023-04-01T09:35:47;18.50;99.90
16392;DHT22;8305;-33.882;151.134;2023-04-01T09:38:23;18.50;99.90
16392;DHT22;8305;-33.882;151.134;2023-04-01T09:41:05;18.40;99.90
16392;DHT22;8305;-33.882;151.134;2023-04-01T09:43:56;18.40;99.90
16392;DHT22;8305;-33.882;151.134;2023-04-01T09:46:37;18.40;99.90
16392;DHT22;8305;-33.882;151.134;2023-04-01T09:49:41;18.40;99.90
16392;DHT22;8305;-33.882;151.134;2023-04-01T09:52:26;18.40;99.90
16392;DHT22;8305;-33.882;151.134;2023-04-01T09:55:25;18.40;99.90
16392;DHT22;8305;-33.882;151.134;2023-04-01T10:01:45;18.40;99.90
16392;DHT22;8305;-33.882;151.134;2023-04-01T10:08:00;18.30;99.90
16392;DHT22;8305;-33.882;151.134;2023-04-01T10:13:56;18.30;99.90
16392;DHT22;8305;-33.882;151.134;2023-04-01T10:16:55;18.30;99.90
16392;DHT22;8305;-33.882;151.134;2023-04-01T10:19:55;18.20;99.90
16392;DHT22;8305;-33.882;151.134;2023-04-01T10:22:51;18.20;99.90
16392;DHT22;8305;-33.882;151.134;2023-04-01T10:28:50;18.20;99.90
16392;DHT22;8305;-33.882;151.134;2023-04-01T10:31:50;18.20;99.90
16392;DHT22;8305;-33.882;151.134;2023-04-01T10:37:52;18.10;99.90
16392;DHT22;8305;-33.882;151.134;2023-04-01T10:40:38;18.10;99.90
16392;DHT22;8305;-33.882;151.134;2023-04-01T10:47:01;18.00;99.90
16392;DHT22;8305;-33.882;151.134;2023-04-01T10:53:20;17.90;99.90
16392;DHT22;8305;-33.882;151.134;2023-04-01T10:56:18;17.90;99.90
16392;DHT22;8305;-33.882;151.134;2023-04-01T11:09:09;17.70;99.90
16392;DHT22;8305;-33.882;151.134;2023-04-01T11:12:17;17.70;99.90
16392;DHT22;8305;-33.882;151.134;2023-04-01T11:18:50;17.70;99.90
16392;DHT22;8305;-33.882;151.134;2023-04-01T11:21:47;17.60;99.90
16392;DHT22;8305;-33.882;151.134;2023-04-01T11:30:40;17.70;99.90
16392;DHT22;8305;-33.882;151.134;2023-04-01T11:33:17;17.60;99.90
16392;DHT22;8305;-33.882;151.134;2023-04-01T11:36:15;17.60;99.90
16392;DHT22;8305;-33.882;151.134;2023-04-01T11:39:05;17.60;99.90
16392;DHT22;8305;-33.882;151.134;2023-04-01T11:41:46;17.60;99.90
16392;DHT22;8305;-33.882;151.134;2023-04-01T11:44:21;17.60;99.90
16392;DHT22;8305;-33.882;151.134;2023-04-01T11:47:09;17.60;99.90
16392;DHT22;8305;-33.882;151.134;2023-04-01T11:50:08;17.60;99.90
16392;DHT22;8305;-33.882;151.134;2023-04-01T11:53:10;17.60;99.90
16392;DHT22;8305;-33.882;151.134;2023-04-01T11:56:00;17.60;99.90
16392;DHT22;8305;-33.882;151.134;2023-04-01T11:59:05;17.50;99.90
16392;DHT22;8305;-33.882;151.134;2023-04-01T12:01:54;17.50;99.90
16392;DHT22;8305;-33.882;151.134;2023-04-01T12:04:50;17.50;99.90
16392;DHT22;8305;-33.882;151.134;2023-04-01T12:07:43;17.40;99.90
16392;DHT22;8305;-33.882;151.134;2023-04-01T12:10:20;17.40;99.90
16392;DHT22;8305;-33.882;151.134;2023-04-01T12:12:58;17.40;99.90
16392;DHT22;8305;-33.882;151.134;2023-04-01T12:15:48;17.30;99.90
16392;DHT22;8305;-33.882;151.134;2023-04-01T12:18:35;17.40;99.90
16392;DHT22;8305;-33.882;151.134;2023-04-01T12:21:19;17.40;99.90
16392;DHT22;8305;-33.882;151.134;2023-04-01T12:29:59;17.50;99.90
16392;DHT22;8305;-33.882;151.134;2023-04-01T12:32:41;17.40;99.90
16392;DHT22;8305;-33.882;151.134;2023-04-01T12:35:37;17.40;99.90
16392;DHT22;8305;-33.882;151.134;2023-04-01T12:38:21;17.30;99.90
16392;DHT22;8305;-33.882;151.134;2023-04-01T12:41:08;17.30;99.90
16392;DHT22;8305;-33.882;151.134;2023-04-01T12:44:12;17.20;99.90
16392;DHT22;8305;-33.882;151.134;2023-04-01T12:47:08;17.20;99.90
16392;DHT22;8305;-33.882;151.134;2023-04-01T12:50:00;17.20;99.90
16392;DHT22;8305;-33.882;151.134;2023-04-01T12:52:50;17.10;99.90
16392;DHT22;8305;-33.882;151.134;2023-04-01T12:55:44;17.10;99.90
16392;DHT22;8305;-33.882;151.134;2023-04-01T12:58:53;17.10;99.90
16392;DHT22;8305;-33.882;151.134;2023-04-01T13:01:52;17.10;99.90
16392;DHT22;8305;-33.882;151.134;2023-04-01T13:04:56;17.10;99.90
16392;DHT22;8305;-33.882;151.134;2023-04-01T13:07:59;17.10;99.90
16392;DHT22;8305;-33.882;151.134;2023-04-01T13:10:41;17.10;99.90
16392;DHT22;8305;-33.882;151.134;2023-04-01T13:13:39;17.00;99.90
16392;DHT22;8305;-33.882;151.134;2023-04-01T13:16:17;17.10;99.90
16392;DHT22;8305;-33.882;151.134;2023-04-01T13:18:56;17.10;99.90
16392;DHT22;8305;-33.882;151.134;2023-04-01T13:21:38;17.10;99.90
16392;DHT22;8305;-33.882;151.134;2023-04-01T13:24:22;17.00;99.90
16392;DHT22;8305;-33.882;151.134;2023-04-01T13:26:58;17.10;99.90
16392;DHT22;8305;-33.882;151.134;2023-04-01T13:29:34;17.10;99.90
16392;DHT22;8305;-33.882;151.134;2023-04-01T13:32:19;17.10;99.90
16392;DHT22;8305;-33.882;151.134;2023-04-01T13:35:08;17.00;99.90
16392;DHT22;8305;-33.882;151.134;2023-04-01T13:37:52;17.00;99.90
16392;DHT22;8305;-33.882;151.134;2023-04-01T13:40:35;17.00;99.90
16392;DHT22;8305;-33.882;151.134;2023-04-01T13:43:15;16.90;99.90
16392;DHT22;8305;-33.882;151.134;2023-04-01T13:52:05;16.80;99.90
16392;DHT22;8305;-33.882;151.134;2023-04-01T13:54:53;16.80;99.90
16392;DHT22;8305;-33.882;151.134;2023-04-01T13:57:40;16.90;99.90
16392;DHT22;8305;-33.882;151.134;2023-04-01T14:00:36;16.90;99.90
16392;DHT22;8305;-33.882;151.134;2023-04-01T14:03:28;16.90;99.90
16392;DHT22;8305;-33.882;151.134;2023-04-01T14:06:14;16.90;99.90
16392;DHT22;8305;-33.882;151.134;2023-04-01T14:11:56;16.90;99.90
16392;DHT22;8305;-33.882;151.134;2023-04-01T14:14:44;17.00;99.90
16392;DHT22;8305;-33.882;151.134;2023-04-01T14:17:29;16.90;99.90
16392;DHT22;8305;-33.882;151.134;2023-04-01T14:20:28;16.80;99.90
16392;DHT22;8305;-33.882;151.134;2023-04-01T14:23:19;16.70;99.90
16392;DHT22;8305;-33.882;151.134;2023-04-01T14:26:09;16.50;99.90
16392;DHT22;8305;-33.882;151.134;2023-04-01T14:28:46;16.50;99.90
16392;DHT22;8305;-33.882;151.134;2023-04-01T14:31:35;16.40;99.90
16392;DHT22;8305;-33.882;151.134;2023-04-01T14:34:22;16.30;99.90
16392;DHT22;8305;-33.882;151.134;2023-04-01T14:37:14;16.20;99.90
16392;DHT22;8305;-33.882;151.134;2023-04-01T14:40:18;16.10;99.90
16392;DHT22;8305;-33.882;151.134;2023-04-01T14:46:29;16.10;99.90
16392;DHT22;8305;-33.882;151.134;2023-04-01T14:49:04;16.10;99.90
16392;DHT22;8305;-33.882;151.134;2023-04-01T14:51:37;16.10;99.90
16392;DHT22;8305;-33.882;151.134;2023-04-01T14:54:14;16.00;99.90
16392;DHT22;8305;-33.882;151.134;2023-04-01T14:56:51;16.00;99.90
16392;DHT22;8305;-33.882;151.134;2023-04-01T14:59:29;16.00;99.90
16392;DHT22;8305;-33.882;151.134;2023-04-01T15:02:08;16.00;99.90
16392;DHT22;8305;-33.882;151.134;2023-04-01T15:04:54;16.00;99.90
16392;DHT22;8305;-33.882;151.134;2023-04-01T15:07:45;16.00;99.90
16392;DHT22;8305;-33.882;151.134;2023-04-01T15:13:24;16.10;99.90
16392;DHT22;8305;-33.882;151.134;2023-04-01T15:16:08;16.10;99.90
16392;DHT22;8305;-33.882;151.134;2023-04-01T15:18:59;16.20;99.90
16392;DHT22;8305;-33.882;151.134;2023-04-01T15:21:55;16.30;99.90
16392;DHT22;8305;-33.882;151.134;2023-04-01T15:24:46;16.30;99.90
16392;DHT22;8305;-33.882;151.134;2023-04-01T15:27:28;16.40;99.90
16392;DHT22;8305;-33.882;151.134;2023-04-01T15:30:22;16.50;99.90
16392;DHT22;8305;-33.882;151.134;2023-04-01T15:33:19;16.60;99.90
16392;DHT22;8305;-33.882;151.134;2023-04-01T15:35:58;16.60;99.90
16392;DHT22;8305;-33.882;151.134;2023-04-01T15:38:36;16.60;99.90
16392;DHT22;8305;-33.882;151.134;2023-04-01T15:41:15;16.70;99.90
16392;DHT22;8305;-33.882;151.134;2023-04-01T15:43:47;16.70;99.90
16392;DHT22;8305;-33.882;151.134;2023-04-01T15:46:31;16.70;99.90
16392;DHT22;8305;-33.882;151.134;2023-04-01T15:49:19;16.70;99.90
16392;DHT22;8305;-33.882;151.134;2023-04-01T15:52:10;16.80;99.90
16392;DHT22;8305;-33.882;151.134;2023-04-01T15:57:49;16.70;99.90
16392;DHT22;8305;-33.882;151.134;2023-04-01T16:00:28;16.70;99.90
16392;DHT22;8305;-33.882;151.134;2023-04-01T16:03:27;16.70;99.90
16392;DHT22;8305;-33.882;151.134;2023-04-01T16:06:16;16.70;99.90
16392;DHT22;8305;-33.882;151.134;2023-04-01T16:09:02;16.80;99.90
16392;DHT22;8305;-33.882;151.134;2023-04-01T16:11:45;16.80;99.90
16392;DHT22;8305;-33.882;151.134;2023-04-01T16:14:30;16.90;99.90
16392;DHT22;8305;-33.882;151.134;2023-04-01T16:17:18;16.90;99.90
16392;DHT22;8305;-33.882;151.134;2023-04-01T16:19:59;16.90;99.90
16392;DHT22;8305;-33.882;151.134;2023-04-01T16:22:34;16.80;99.90
16392;DHT22;8305;-33.882;151.134;2023-04-01T16:25:21;16.80;99.90
16392;DHT22;8305;-33.882;151.134;2023-04-01T16:28:13;16.80;99.90
16392;DHT22;8305;-33.882;151.134;2023-04-01T16:30:55;16.80;99.90
16392;DHT22;8305;-33.882;151.134;2023-04-01T16:33:35;16.70;99.90
16392;DHT22;8305;-33.882;151.134;2023-04-01T16:36:17;16.70;99.90
16392;DHT22;8305;-33.882;151.134;2023-04-01T16:39:06;16.70;99.90
16392;DHT22;8305;-33.882;151.134;2023-04-01T16:41:47;16.70;99.90
16392;DHT22;8305;-33.882;151.134;2023-04-01T16:44:22;16.70;99.90
16392;DHT22;8305;-33.882;151.134;2023-04-01T16:46:55;16.60;99.90
16392;DHT22;8305;-33.882;151.134;2023-04-01T16:49:39;16.50;99.90
16392;DHT22;8305;-33.882;151.134;2023-04-01T16:52:16;16.50;99.90
16392;DHT22;8305;-33.882;151.134;2023-04-01T16:54:52;16.40;99.90
16392;DHT22;8305;-33.882;151.134;2023-04-01T16:57:31;16.40;99.90
16392;DHT22;8305;-33.882;151.134;2023-04-01T17:00:21;16.40;99.90
16392;DHT22;8305;-33.882;151.134;2023-04-01T17:03:10;16.40;99.90
16392;DHT22;8305;-33.882;151.134;2023-04-01T17:06:00;16.40;99.90
16392;DHT22;8305;-33.882;151.134;2023-04-01T17:08:47;16.40;99.90
16392;DHT22;8305;-33.882;151.134;2023-04-01T17:11:24;16.40;99.90
16392;DHT22;8305;-33.882;151.134;2023-04-01T17:14:07;16.40;99.90
16392;DHT22;8305;-33.882;151.134;2023-04-01T17:17:01;16.40;99.90
16392;DHT22;8305;-33.882;151.134;2023-04-01T17:19:47;16.40;99.90
16392;DHT22;8305;-33.882;151.134;2023-04-01T17:22:29;16.50;99.90
16392;DHT22;8305;-33.882;151.134;2023-04-01T17:28:10;16.50;99.90
16392;DHT22;8305;-33.882;151.134;2023-04-01T17:30:53;16.50;99.90
16392;DHT22;8305;-33.882;151.134;2023-04-01T17:33:44;16.50;99.90
16392;DHT22;8305;-33.882;151.134;2023-04-01T17:36:34;16.60;99.90
16392;DHT22;8305;-33.882;151.134;2023-04-01T17:39:27;16.60;99.90
16392;DHT22;8305;-33.882;151.134;2023-04-01T17:42:06;16.70;99.90
16392;DHT22;8305;-33.882;151.134;2023-04-01T17:44:49;16.70;99.90
16392;DHT22;8305;-33.882;151.134;2023-04-01T17:47:52;16.80;99.90
16392;DHT22;8305;-33.882;151.134;2023-04-01T17:50:33;16.80;99.90